sensor_id;sensor_type;location;lat;lon;timestamp;pressure;altitude;pressure_sealevel;temperature;humidity
23318;BME280;11831;55.918;37.746;2023-08-31T11:32:44;99320.88;;;35.43;0.00
23318;BME280;11831;55.918;37.746;2023-08-31T11:35:11;99308.37;;;36.29;0.00
23318;BME280;11831;55.918;37.746;2023-08-31T11:37:37;99307.84;;;36.63;0.00
23318;BME280;11831;55.918;37.746;2023-08-31T11:40:05;99304.94;;;36.88;0.00
23318;BME280;11831;55.918;37.746;2023-08-31T11:42:31;99304.62;;;37.79;0.00
23318;BME280;11831;55.918;37.746;2023-08-31T11:44:58;99299.72;;;38.55;0.00
23318;BME280;11831;55.918;37.746;2023-08-31T11:47:24;99298.03;;;38.00;0.00
23318;BME280;11831;55.918;37.746;2023-08-31T11:49:51;99296.62;;;38.79;0.00
23318;BME280;11831;55.918;37.746;2023-08-31T11:52:18;99294.44;;;38.33;0.00
23318;BME280;11831;55.918;37.746;2023-08-31T11:54:44;99294.66;;;39.30;0.00
23318;BME280;11831;55.918;37.746;2023-08-31T11:57:12;99297.50;;;39.93;0.00
23318;BME280;11831;55.918;37.746;2023-08-31T11:59:39;99291.53;;;40.15;0.00
23318;BME280;11831;55.918;37.746;2023-08-31T12:02:06;99295.62;;;38.36;0.00
23318;BME280;11831;55.918;37.746;2023-08-31T12:04:42;99283.94;;;40.31;0.00
23318;BME280;11831;55.918;37.746;2023-08-31T12:07:16;99279.59;;;38.97;0.00
23318;BME280;11831;55.918;37.746;2023-08-31T12:09:43;99276.06;;;40.07;0.00
23318;BME280;11831;55.918;37.746;2023-08-31T12:12:11;99276.66;;;39.98;0.00
23318;BME280;11831;55.918;37.746;2023-08-31T12:14:39;99264.31;;;39.95;0.00
23318;BME280;11831;55.918;37.746;2023-08-31T12:17:07;99261.19;;;40.49;0.00
23318;BME280;11831;55.918;37.746;2023-08-31T12:19:37;99272.72;;;39.52;0.00
23318;BME280;11831;55.918;37.746;2023-08-31T12:22:06;99265.72;;;40.79;0.00
23318;BME280;11831;55.918;37.746;2023-08-31T12:24:40;99260.34;;;39.93;0.00
23318;BME280;11831;55.918;37.746;2023-08-31T12:27:09;99260.75;;;39.71;0.00
23318;BME280;11831;55.918;37.746;2023-08-31T12:29:36;99255.53;;;41.50;0.00
23318;BME280;11831;55.918;37.746;2023-08-31T12:32:02;99253.09;;;41.20;0.00
23318;BME280;11831;55.918;37.746;2023-08-31T12:34:29;99244.63;;;41.40;0.00
23318;BME280;11831;55.918;37.746;2023-08-31T12:36:57;99250.09;;;40.26;0.00
23318;BME280;11831;55.918;37.746;2023-08-31T12:39:28;99246.09;;;40.79;0.00
23318;BME280;11831;55.918;37.746;2023-08-31T12:41:54;99259.53;;;39.29;0.00
23318;BME280;11831;55.918;37.746;2023-08-31T12:44:21;99247.31;;;40.78;0.00
23318;BME280;11831;55.918;37.746;2023-08-31T12:46:48;99251.47;;;41.22;0.00
23318;BME280;11831;55.918;37.746;2023-08-31T12:49:14;99261.69;;;41.29;0.00
23318;BME280;11831;55.918;37.746;2023-08-31T12:51:40;99257.31;;;41.44;0.00
23318;BME280;11831;55.918;37.746;2023-08-31T12:54:07;99256.22;;;39.11;0.00
23318;BME280;11831;55.918;37.746;2023-08-31T12:56:34;99253.44;;;40.73;0.00
23318;BME280;11831;55.918;37.746;2023-08-31T12:59:00;99251.06;;;41.53;0.00
23318;BME280;11831;55.918;37.746;2023-08-31T13:01:26;99240.31;;;41.93;0.00
23318;BME280;11831;55.918;37.746;2023-08-31T13:03:52;99230.31;;;42.21;0.00
23318;BME280;11831;55.918;37.746;2023-08-31T13:06:19;99241.72;;;41.11;0.00
23318;BME280;11831;55.918;37.746;2023-08-31T13:08:45;99236.81;;;41.31;0.00
23318;BME280;11831;55.918;37.746;2023-08-31T13:11:12;99239.16;;;41.49;0.00
23318;BME280;11831;55.918;37.746;2023-08-31T13:13:41;99233.00;;;40.20;0.00
23318;BME280;11831;55.918;37.746;2023-08-31T13:16:07;99236.78;;;39.27;0.00
23318;BME280;11831;55.918;37.746;2023-08-31T13:18:33;99230.00;;;40.83;0.00
23318;BME280;11831;55.918;37.746;2023-08-31T13:21:00;99235.44;;;40.18;0.00
23318;BME280;11831;55.918;37.746;2023-08-31T13:23:26;99241.69;;;39.86;0.00
23318;BME280;11831;55.918;37.746;2023-08-31T13:25:53;99227.94;;;38.82;0.00
23318;BME280;11831;55.918;37.746;2023-08-31T13:28:19;99231.09;;;40.33;0.00
23318;BME280;11831;55.918;37.746;2023-08-31T13:30:46;99226.91;;;41.43;0.00
23318;BME280;11831;55.918;37.746;2023-08-31T13:33:12;99239.13;;;39.95;0.00
23318;BME280;11831;55.918;37.746;2023-08-31T13:35:38;99223.31;;;41.42;0.00
23318;BME280;11831;55.918;37.746;2023-08-31T13:38:05;99222.41;;;39.49;0.00
23318;BME280;11831;55.918;37.746;2023-08-31T13:40:34;99221.66;;;40.08;0.00
23318;BME280;11831;55.918;37.746;2023-08-31T13:43:01;99222.06;;;40.62;0.00
23318;BME280;11831;55.918;37.746;2023-08-31T13:45:30;99224.00;;;40.65;0.00
23318;BME280;11831;55.918;37.746;2023-08-31T13:48:00;99221.47;;;39.12;0.00
23318;BME280;11831;55.918;37.746;2023-08-31T13:50:27;99221.31;;;39.66;0.00
23318;BME280;11831;55.918;37.746;2023-08-31T13:52:53;99212.19;;;38.68;0.00
23318;BME280;11831;55.918;37.746;2023-08-31T13:55:20;99217.72;;;39.85;0.00
23318;BME280;11831;55.918;37.746;2023-08-31T13:57:47;99220.06;;;40.46;0.00
23318;BME280;11831;55.918;37.746;2023-08-31T14:00:13;99221.03;;;39.37;0.00
23318;BME280;11831;55.918;37.746;2023-08-31T14:02:41;99226.41;;;38.20;0.00
23318;BME280;11831;55.918;37.746;2023-08-31T14:05:10;99219.16;;;38.26;0.00
23318;BME280;11831;55.918;37.746;2023-08-31T14:07:37;99211.78;;;39.20;0.00
23318;BME280;11831;55.918;37.746;2023-08-31T14:10:04;99230.09;;;36.93;0.00
23318;BME280;11831;55.918;37.746;2023-08-31T14:12:33;99231.59;;;37.50;0.00
23318;BME280;11831;55.918;37.746;2023-08-31T14:15:00;99210.22;;;38.38;0.00
23318;BME280;11831;55.918;37.746;2023-08-31T14:17:31;99208.47;;;37.53;0.00
23318;BME280;11831;55.918;37.746;2023-08-31T14:20:01;99213.97;;;35.76;0.00
23318;BME280;11831;55.918;37.746;2023-08-31T14:22:31;99216.75;;;38.28;0.00
23318;BME280;11831;55.918;37.746;2023-08-31T14:24:59;99209.00;;;37.41;0.00
23318;BME280;11831;55.918;37.746;2023-08-31T14:27:27;99211.44;;;37.35;0.00
23318;BME280;11831;55.918;37.746;2023-08-31T14:29:54;99208.28;;;37.29;0.00
23318;BME280;11831;55.918;37.746;2023-08-31T14:32:20;99206.47;;;36.57;0.00
23318;BME280;11831;55.918;37.746;2023-08-31T14:34:46;99200.25;;;36.35;0.00
23318;BME280;11831;55.918;37.746;2023-08-31T14:37:13;99197.25;;;36.67;0.00
23318;BME280;11831;55.918;37.746;2023-08-31T14:39:40;99203.78;;;36.46;0.00
23318;BME280;11831;55.918;37.746;2023-08-31T14:42:07;99203.19;;;36.03;0.00
23318;BME280;11831;55.918;37.746;2023-08-31T14:44:33;99201.34;;;36.52;0.00
23318;BME280;11831;55.918;37.746;2023-08-31T14:47:00;99203.81;;;36.35;0.00
23318;BME280;11831;55.918;37.746;2023-08-31T14:49:26;99200.47;;;35.74;0.00
23318;BME280;11831;55.918;37.746;2023-08-31T14:51:52;99192.44;;;36.01;0.00
23318;BME280;11831;55.918;37.746;2023-08-31T14:54:19;99196.25;;;36.36;0.00
23318;BME280;11831;55.918;37.746;2023-08-31T14:56:45;99199.38;;;34.65;0.00
23318;BME280;11831;55.918;37.746;2023-08-31T14:59:11;99198.19;;;35.30;0.00
23318;BME280;11831;55.918;37.746;2023-08-31T15:01:38;99198.59;;;35.18;0.00
23318;BME280;11831;55.918;37.746;2023-08-31T15:04:05;99194.63;;;35.26;0.00
23318;BME280;11831;55.918;37.746;2023-08-31T15:06:31;99202.56;;;34.74;0.00
23318;BME280;11831;55.918;37.746;2023-08-31T15:08:59;99187.47;;;34.54;0.00
23318;BME280;11831;55.918;37.746;2023-08-31T15:11:27;99180.38;;;33.59;0.00
23318;BME280;11831;55.918;37.746;2023-08-31T15:13:53;99195.00;;;33.56;0.00
23318;BME280;11831;55.918;37.746;2023-08-31T15:16:19;99200.69;;;33.81;0.00
23318;BME280;11831;55.918;37.746;2023-08-31T18:12:29;99193.00;;;22.78;0.00
23318;BME280;11831;55.918;37.746;2023-08-31T18:14:56;99156.69;;;22.60;0.00
23318;BME280;11831;55.918;37.746;2023-08-31T18:17:22;99188.03;;;22.41;0.00
23318;BME280;11831;55.918;37.746;2023-08-31T18:19:52;99167.53;;;22.21;0.00
23318;BME280;11831;55.918;37.746;2023-08-31T18:22:18;99210.44;;;22.01;0.00
23318;BME280;11831;55.918;37.746;2023-08-31T18:24:45;99229.81;;;22.14;0.00
23318;BME280;11831;55.918;37.746;2023-08-31T18:27:11;99254.31;;;22.36;0.00
23318;BME280;11831;55.918;37.746;2023-08-31T18:29:38;99138.34;;;22.13;0.00
23318;BME280;11831;55.918;37.746;2023-08-31T18:32:06;99238.41;;;22.29;0.00
23318;BME280;11831;55.918;37.746;2023-08-31T18:34:32;99221.16;;;22.12;0.00
23318;BME280;11831;55.918;37.746;2023-08-31T18:36:59;99248.38;;;22.12;0.00
23318;BME280;11831;55.918;37.746;2023-08-31T18:39:25;99236.84;;;22.15;0.00
23318;BME280;11831;55.918;37.746;2023-08-31T18:41:52;99208.69;;;22.19;0.00
23318;BME280;11831;55.918;37.746;2023-08-31T18:44:18;99189.28;;;21.98;0.00
23318;BME280;11831;55.918;37.746;2023-08-31T18:46:45;99235.62;;;21.85;0.00
23318;BME280;11831;55.918;37.746;2023-08-31T18:49:12;99198.25;;;21.99;0.00
23318;BME280;11831;55.918;37.746;2023-08-31T18:51:38;99236.63;;;21.89;0.00
